sensor_id;sensor_type;location;lat;lon;timestamp;temperature;humidity
47618;DHT22;33336;36.728;-4.414;2022-07-05T00:03:48;24.90;95.90
47618;DHT22;33336;36.728;-4.414;2022-07-05T00:08:51;25.60;95.00
47618;DHT22;33336;36.728;-4.414;2022-07-05T00:13:55;25.70;94.80
47618;DHT22;33336;36.728;-4.414;2022-07-05T00:18:59;25.90;94.60
47618;DHT22;33336;36.728;-4.414;2022-07-05T00:24:01;25.50;94.70
47618;DHT22;33336;36.728;-4.414;2022-07-05T00:29:06;25.40;94.80
47618;DHT22;33336;36.728;-4.414;2022-07-05T00:34:09;24.90;95.70
47618;DHT22;33336;36.728;-4.414;2022-07-05T00:39:13;25.20;95.00
47618;DHT22;33336;36.728;-4.414;2022-07-05T00:44:27;25.10;95.20
47618;DHT22;33336;36.728;-4.414;2022-07-05T00:49:31;25.60;94.40
47618;DHT22;33336;36.728;-4.414;2022-07-05T00:54:35;25.40;94.50
47618;DHT22;33336;36.728;-4.414;2022-07-05T00:59:40;25.50;94.30
47618;DHT22;33336;36.728;-4.414;2022-07-05T01:04:43;25.30;94.30
47618;DHT22;33336;36.728;-4.414;2022-07-05T01:09:47;25.50;94.20
47618;DHT22;33336;36.728;-4.414;2022-07-05T01:14:51;25.60;93.90
47618;DHT22;33336;36.728;-4.414;2022-07-05T01:19:55;25.40;94.10
47618;DHT22;33336;36.728;-4.414;2022-07-05T01:24:59;25.30;94.40
47618;DHT22;33336;36.728;-4.414;2022-07-05T01:30:04;25.80;93.60
47618;DHT22;33336;36.728;-4.414;2022-07-05T01:35:08;26.00;93.20
47618;DHT22;33336;36.728;-4.414;2022-07-05T01:40:13;26.10;92.90
47618;DHT22;33336;36.728;-4.414;2022-07-05T01:45:16;26.20;92.80
47618;DHT22;33336;36.728;-4.414;2022-07-05T01:50:43;25.80;92.80
47618;DHT22;33336;36.728;-4.414;2022-07-05T01:55:49;25.30;93.00
47618;DHT22;33336;36.728;-4.414;2022-07-05T02:00:54;24.90;93.40
47618;DHT22;33336;36.728;-4.414;2022-07-05T02:05:57;24.50;93.70
47618;DHT22;33336;36.728;-4.414;2022-07-05T02:11:02;25.20;92.80
47618;DHT22;33336;36.728;-4.414;2022-07-05T02:16:06;25.40;92.30
47618;DHT22;33336;36.728;-4.414;2022-07-05T02:21:10;24.80;92.50
47618;DHT22;33336;36.728;-4.414;2022-07-05T02:26:14;25.30;92.00
47618;DHT22;33336;36.728;-4.414;2022-07-05T02:31:18;25.40;91.40
47618;DHT22;33336;36.728;-4.414;2022-07-05T02:36:22;25.60;90.80
47618;DHT22;33336;36.728;-4.414;2022-07-05T02:41:27;25.90;90.50
47618;DHT22;33336;36.728;-4.414;2022-07-05T02:46:30;25.80;90.40
47618;DHT22;33336;36.728;-4.414;2022-07-05T02:51:34;25.80;90.80
47618;DHT22;33336;36.728;-4.414;2022-07-05T02:56:38;25.90;91.10
47618;DHT22;33336;36.728;-4.414;2022-07-05T03:01:42;26.10;90.90
47618;DHT22;33336;36.728;-4.414;2022-07-05T03:06:44;26.50;90.70
47618;DHT22;33336;36.728;-4.414;2022-07-05T03:11:49;26.60;90.50
47618;DHT22;33336;36.728;-4.414;2022-07-05T03:16:52;26.70;90.50
47618;DHT22;33336;36.728;-4.414;2022-07-05T03:21:56;26.70;90.40
47618;DHT22;33336;36.728;-4.414;2022-07-05T03:27:00;26.80;90.30
47618;DHT22;33336;36.728;-4.414;2022-07-05T03:32:04;26.60;90.70
47618;DHT22;33336;36.728;-4.414;2022-07-05T03:37:07;26.70;88.10
47618;DHT22;33336;36.728;-4.414;2022-07-05T03:42:12;26.80;87.50
47618;DHT22;33336;36.728;-4.414;2022-07-05T03:47:15;26.60;85.00
47618;DHT22;33336;36.728;-4.414;2022-07-05T03:52:19;26.70;82.50
47618;DHT22;33336;36.728;-4.414;2022-07-05T03:57:23;26.30;79.00
47618;DHT22;33336;36.728;-4.414;2022-07-05T04:02:27;26.20;78.60
47618;DHT22;33336;36.728;-4.414;2022-07-05T04:07:29;25.90;85.50
47618;DHT22;33336;36.728;-4.414;2022-07-05T04:12:34;26.40;86.10
47618;DHT22;33336;36.728;-4.414;2022-07-05T04:17:46;26.50;85.60
47618;DHT22;33336;36.728;-4.414;2022-07-05T04:22:49;26.10;86.30
47618;DHT22;33336;36.728;-4.414;2022-07-05T04:27:54;26.00;86.20
47618;DHT22;33336;36.728;-4.414;2022-07-05T04:32:58;26.00;86.10
47618;DHT22;33336;36.728;-4.414;2022-07-05T04:38:00;26.20;85.80
47618;DHT22;33336;36.728;-4.414;2022-07-05T04:43:05;26.40;85.40
47618;DHT22;33336;36.728;-4.414;2022-07-05T04:48:08;26.60;84.70
47618;DHT22;33336;36.728;-4.414;2022-07-05T04:53:12;26.80;84.10
47618;DHT22;33336;36.728;-4.414;2022-07-05T04:58:16;26.90;83.60
47618;DHT22;33336;36.728;-4.414;2022-07-05T05:03:19;27.00;83.10
47618;DHT22;33336;36.728;-4.414;2022-07-05T05:08:22;27.00;82.80
47618;DHT22;33336;36.728;-4.414;2022-07-05T05:13:27;26.60;83.20
47618;DHT22;33336;36.728;-4.414;2022-07-05T05:18:30;26.80;83.30
47618;DHT22;33336;36.728;-4.414;2022-07-05T05:23:34;26.40;82.80
47618;DHT22;33336;36.728;-4.414;2022-07-05T05:28:38;26.30;82.80
47618;DHT22;33336;36.728;-4.414;2022-07-05T05:33:41;25.80;83.40
47618;DHT22;33336;36.728;-4.414;2022-07-05T05:38:44;25.90;83.80
47618;DHT22;33336;36.728;-4.414;2022-07-05T05:43:49;26.60;82.10
47618;DHT22;33336;36.728;-4.414;2022-07-05T05:48:52;26.20;81.50
47618;DHT22;33336;36.728;-4.414;2022-07-05T05:53:56;26.60;82.40
47618;DHT22;33336;36.728;-4.414;2022-07-05T05:59:00;26.20;82.00
47618;DHT22;33336;36.728;-4.414;2022-07-05T06:04:04;26.30;82.00
47618;DHT22;33336;36.728;-4.414;2022-07-05T06:09:06;26.80;81.40
47618;DHT22;33336;36.728;-4.414;2022-07-05T06:14:11;26.80;81.40
47618;DHT22;33336;36.728;-4.414;2022-07-05T06:19:14;27.00;84.00
47618;DHT22;33336;36.728;-4.414;2022-07-05T06:24:16;26.50;88.40
47618;DHT22;33336;36.728;-4.414;2022-07-05T06:29:21;26.40;90.10
47618;DHT22;33336;36.728;-4.414;2022-07-05T06:34:24;26.40;90.10
47618;DHT22;33336;36.728;-4.414;2022-07-05T06:39:26;26.60;89.90
47618;DHT22;33336;36.728;-4.414;2022-07-05T06:44:31;26.60;89.90
47618;DHT22;33336;36.728;-4.414;2022-07-05T06:49:34;26.50;90.20
47618;DHT22;33336;36.728;-4.414;2022-07-05T06:54:37;26.60;90.00
47618;DHT22;33336;36.728;-4.414;2022-07-05T06:59:42;26.00;90.30
47618;DHT22;33336;36.728;-4.414;2022-07-05T07:04:46;26.20;90.70
47618;DHT22;33336;36.728;-4.414;2022-07-05T07:09:49;26.30;90.60
47618;DHT22;33336;36.728;-4.414;2022-07-05T07:14:53;26.50;90.60
47618;DHT22;33336;36.728;-4.414;2022-07-05T07:19:56;26.90;89.90
47618;DHT22;33336;36.728;-4.414;2022-07-05T07:24:59;27.10;89.60
47618;DHT22;33336;36.728;-4.414;2022-07-05T07:30:05;27.30;89.10
47618;DHT22;33336;36.728;-4.414;2022-07-05T07:35:08;27.40;89.00
47618;DHT22;33336;36.728;-4.414;2022-07-05T07:40:12;27.70;88.00
47618;DHT22;33336;36.728;-4.414;2022-07-05T07:45:17;27.70;88.80
47618;DHT22;33336;36.728;-4.414;2022-07-05T07:50:20;27.80;88.80
47618;DHT22;33336;36.728;-4.414;2022-07-05T07:55:23;28.10;88.30
47618;DHT22;33336;36.728;-4.414;2022-07-05T08:00:28;28.20;86.40
47618;DHT22;33336;36.728;-4.414;2022-07-05T08:05:31;27.90;86.10
47618;DHT22;33336;36.728;-4.414;2022-07-05T08:10:34;27.40;88.20
47618;DHT22;33336;36.728;-4.414;2022-07-05T08:15:39;27.40;88.50
47618;DHT22;33336;36.728;-4.414;2022-07-05T08:20:42;27.30;88.70
47618;DHT22;33336;36.728;-4.414;2022-07-05T08:26:02;27.90;87.20
47618;DHT22;33336;36.728;-4.414;2022-07-05T08:31:06;27.90;87.10
47618;DHT22;33336;36.728;-4.414;2022-07-05T08:36:10;28.10;86.90
47618;DHT22;33336;36.728;-4.414;2022-07-05T08:41:12;28.10;87.60
47618;DHT22;33336;36.728;-4.414;2022-07-05T08:46:21;28.40;86.90
47618;DHT22;33336;36.728;-4.414;2022-07-05T08:51:25;28.90;86.20
47618;DHT22;33336;36.728;-4.414;2022-07-05T08:56:30;29.20;85.30
47618;DHT22;33336;36.728;-4.414;2022-07-05T09:01:34;29.30;84.10
47618;DHT22;33336;36.728;-4.414;2022-07-05T09:06:39;29.50;83.70
47618;DHT22;33336;36.728;-4.414;2022-07-05T09:11:44;29.80;83.20
47618;DHT22;33336;36.728;-4.414;2022-07-05T09:16:50;29.00;80.60
47618;DHT22;33336;36.728;-4.414;2022-07-05T09:22:01;28.80;82.10
47618;DHT22;33336;36.728;-4.414;2022-07-05T09:27:05;28.60;83.30
47618;DHT22;33336;36.728;-4.414;2022-07-05T09:32:23;29.30;83.40
47618;DHT22;33336;36.728;-4.414;2022-07-05T09:37:42;30.00;82.40
47618;DHT22;33336;36.728;-4.414;2022-07-05T09:42:46;30.50;82.00
47618;DHT22;33336;36.728;-4.414;2022-07-05T09:47:50;30.40;82.00
47618;DHT22;33336;36.728;-4.414;2022-07-05T09:52:56;31.00;81.00
47618;DHT22;33336;36.728;-4.414;2022-07-05T09:57:59;31.40;80.00
47618;DHT22;33336;36.728;-4.414;2022-07-05T10:03:04;31.40;78.40
47618;DHT22;33336;36.728;-4.414;2022-07-05T10:08:07;31.60;78.50
47618;DHT22;33336;36.728;-4.414;2022-07-05T10:13:14;31.60;77.40
47618;DHT22;33336;36.728;-4.414;2022-07-05T10:18:21;30.80;76.50
47618;DHT22;33336;36.728;-4.414;2022-07-05T10:23:33;30.90;77.50
47618;DHT22;33336;36.728;-4.414;2022-07-05T10:28:38;30.50;77.80
47618;DHT22;33336;36.728;-4.414;2022-07-05T10:33:43;29.90;79.90
47618;DHT22;33336;36.728;-4.414;2022-07-05T10:38:47;30.40;78.20
47618;DHT22;33336;36.728;-4.414;2022-07-05T10:43:53;30.90;77.30
47618;DHT22;33336;36.728;-4.414;2022-07-05T10:49:11;30.80;75.60
47618;DHT22;33336;36.728;-4.414;2022-07-05T10:54:15;30.70;74.50
47618;DHT22;33336;36.728;-4.414;2022-07-05T10:59:18;30.60;73.90
47618;DHT22;33336;36.728;-4.414;2022-07-05T11:04:27;31.30;74.90
47618;DHT22;33336;36.728;-4.414;2022-07-05T11:09:34;31.60;72.30
47618;DHT22;33336;36.728;-4.414;2022-07-05T11:14:38;31.60;71.30
47618;DHT22;33336;36.728;-4.414;2022-07-05T11:20:11;30.80;72.00
47618;DHT22;33336;36.728;-4.414;2022-07-05T11:25:14;31.60;72.30
47618;DHT22;33336;36.728;-4.414;2022-07-05T11:30:22;31.90;70.70
47618;DHT22;33336;36.728;-4.414;2022-07-05T11:35:32;31.50;71.40
47618;DHT22;33336;36.728;-4.414;2022-07-05T11:40:37;31.60;69.10
47618;DHT22;33336;36.728;-4.414;2022-07-05T11:45:40;32.20;70.90
47618;DHT22;33336;36.728;-4.414;2022-07-05T11:50:45;33.00;70.50
47618;DHT22;33336;36.728;-4.414;2022-07-05T11:55:54;32.30;71.10
47618;DHT22;33336;36.728;-4.414;2022-07-05T12:00:58;30.80;75.20
47618;DHT22;33336;36.728;-4.414;2022-07-05T12:06:13;31.60;74.00
47618;DHT22;33336;36.728;-4.414;2022-07-05T12:11:18;31.00;74.50
47618;DHT22;33336;36.728;-4.414;2022-07-05T12:16:38;30.50;73.90
47618;DHT22;33336;36.728;-4.414;2022-07-05T12:21:52;29.50;75.20
47618;DHT22;33336;36.728;-4.414;2022-07-05T12:26:55;30.00;74.10
47618;DHT22;33336;36.728;-4.414;2022-07-05T12:32:00;31.30;72.10
47618;DHT22;33336;36.728;-4.414;2022-07-05T12:37:05;32.20;70.30
47618;DHT22;33336;36.728;-4.414;2022-07-05T12:42:09;32.60;69.90
47618;DHT22;33336;36.728;-4.414;2022-07-05T12:47:12;31.70;70.70
47618;DHT22;33336;36.728;-4.414;2022-07-05T12:52:17;31.20;71.50
47618;DHT22;33336;36.728;-4.414;2022-07-05T12:57:20;31.40;72.10
47618;DHT22;33336;36.728;-4.414;2022-07-05T13:02:42;31.90;71.80
47618;DHT22;33336;36.728;-4.414;2022-07-05T13:07:46;32.10;70.80
47618;DHT22;33336;36.728;-4.414;2022-07-05T13:12:50;31.90;71.50
47618;DHT22;33336;36.728;-4.414;2022-07-05T13:17:53;32.70;71.50
47618;DHT22;33336;36.728;-4.414;2022-07-05T13:22:59;32.70;70.20
47618;DHT22;33336;36.728;-4.414;2022-07-05T13:28:01;32.60;70.00
47618;DHT22;33336;36.728;-4.414;2022-07-05T13:33:05;32.80;69.10
47618;DHT22;33336;36.728;-4.414;2022-07-05T13:38:10;33.70;68.30
47618;DHT22;33336;36.728;-4.414;2022-07-05T13:43:14;32.80;67.60
47618;DHT22;33336;36.728;-4.414;2022-07-05T13:48:17;33.80;67.30
47618;DHT22;33336;36.728;-4.414;2022-07-05T13:53:22;34.30;66.30
47618;DHT22;33336;36.728;-4.414;2022-07-05T13:58:25;33.80;66.20
47618;DHT22;33336;36.728;-4.414;2022-07-05T14:03:28;33.60;67.80
47618;DHT22;33336;36.728;-4.414;2022-07-05T14:08:32;33.40;68.60
47618;DHT22;33336;36.728;-4.414;2022-07-05T14:13:36;34.10;69.20
47618;DHT22;33336;36.728;-4.414;2022-07-05T14:18:39;33.80;70.20
47618;DHT22;33336;36.728;-4.414;2022-07-05T14:23:45;32.60;70.60
47618;DHT22;33336;36.728;-4.414;2022-07-05T14:28:48;33.70;71.10
47618;DHT22;33336;36.728;-4.414;2022-07-05T14:33:51;33.70;70.70
47618;DHT22;33336;36.728;-4.414;2022-07-05T14:38:56;34.90;69.40
47618;DHT22;33336;36.728;-4.414;2022-07-05T14:44:01;35.00;68.10
47618;DHT22;33336;36.728;-4.414;2022-07-05T14:49:04;34.90;68.80
47618;DHT22;33336;36.728;-4.414;2022-07-05T14:54:09;34.80;67.90
47618;DHT22;33336;36.728;-4.414;2022-07-05T14:59:12;34.80;68.40
47618;DHT22;33336;36.728;-4.414;2022-07-05T15:04:16;34.70;68.30
47618;DHT22;33336;36.728;-4.414;2022-07-05T15:09:20;32.30;71.10
47618;DHT22;33336;36.728;-4.414;2022-07-05T15:14:25;33.30;69.50
47618;DHT22;33336;36.728;-4.414;2022-07-05T15:19:29;34.90;68.70
47618;DHT22;33336;36.728;-4.414;2022-07-05T15:24:35;35.50;67.70
47618;DHT22;33336;36.728;-4.414;2022-07-05T15:29:38;35.80;66.60
47618;DHT22;33336;36.728;-4.414;2022-07-05T15:34:40;35.10;68.20
47618;DHT22;33336;36.728;-4.414;2022-07-05T15:39:45;33.70;68.50
47618;DHT22;33336;36.728;-4.414;2022-07-05T15:44:48;34.20;69.60
47618;DHT22;33336;36.728;-4.414;2022-07-05T15:49:51;34.40;70.50
47618;DHT22;33336;36.728;-4.414;2022-07-05T15:54:56;31.60;72.10
47618;DHT22;33336;36.728;-4.414;2022-07-05T15:59:59;32.20;74.10
47618;DHT22;33336;36.728;-4.414;2022-07-05T16:05:03;31.70;75.90
47618;DHT22;33336;36.728;-4.414;2022-07-05T16:10:08;33.60;72.20
47618;DHT22;33336;36.728;-4.414;2022-07-05T16:15:12;32.50;71.70
47618;DHT22;33336;36.728;-4.414;2022-07-05T16:20:35;32.40;72.20
47618;DHT22;33336;36.728;-4.414;2022-07-05T16:25:40;34.30;70.40
47618;DHT22;33336;36.728;-4.414;2022-07-05T16:30:43;35.40;67.90
47618;DHT22;33336;36.728;-4.414;2022-07-05T16:35:47;33.80;70.30
47618;DHT22;33336;36.728;-4.414;2022-07-05T16:40:51;34.20;69.80
47618;DHT22;33336;36.728;-4.414;2022-07-05T16:45:55;34.40;68.70
47618;DHT22;33336;36.728;-4.414;2022-07-05T16:50:58;35.00;68.60
47618;DHT22;33336;36.728;-4.414;2022-07-05T16:56:07;33.70;68.00
47618;DHT22;33336;36.728;-4.414;2022-07-05T17:01:12;34.00;69.80
47618;DHT22;33336;36.728;-4.414;2022-07-05T17:06:17;34.70;69.30
47618;DHT22;33336;36.728;-4.414;2022-07-05T17:11:21;32.10;72.70
47618;DHT22;33336;36.728;-4.414;2022-07-05T17:16:26;33.10;71.50
47618;DHT22;33336;36.728;-4.414;2022-07-05T17:21:29;34.20;70.10
47618;DHT22;33336;36.728;-4.414;2022-07-05T17:26:33;34.10;70.00
47618;DHT22;33336;36.728;-4.414;2022-07-05T17:31:36;34.30;70.90
47618;DHT22;33336;36.728;-4.414;2022-07-05T17:36:40;33.40;72.30
47618;DHT22;33336;36.728;-4.414;2022-07-05T17:41:44;33.30;72.40
47618;DHT22;33336;36.728;-4.414;2022-07-05T17:46:47;33.30;72.10
47618;DHT22;33336;36.728;-4.414;2022-07-05T17:51:50;32.80;73.20
47618;DHT22;33336;36.728;-4.414;2022-07-05T17:56:55;32.90;73.30
47618;DHT22;33336;36.728;-4.414;2022-07-05T18:01:58;32.00;75.00
47618;DHT22;33336;36.728;-4.414;2022-07-05T18:07:02;31.50;75.60
47618;DHT22;33336;36.728;-4.414;2022-07-05T18:12:08;31.50;75.50
47618;DHT22;33336;36.728;-4.414;2022-07-05T18:17:12;32.10;74.80
47618;DHT22;33336;36.728;-4.414;2022-07-05T18:22:14;30.30;77.60
47618;DHT22;33336;36.728;-4.414;2022-07-05T18:27:21;30.10;77.50
47618;DHT22;33336;36.728;-4.414;2022-07-05T18:32:24;30.80;74.90
47618;DHT22;33336;36.728;-4.414;2022-07-05T18:37:28;30.70;74.80
47618;DHT22;33336;36.728;-4.414;2022-07-05T18:42:32;30.50;74.80
47618;DHT22;33336;36.728;-4.414;2022-07-05T18:47:36;29.90;76.70
47618;DHT22;33336;36.728;-4.414;2022-07-05T18:52:39;28.90;78.10
47618;DHT22;33336;36.728;-4.414;2022-07-05T18:57:45;29.50;78.50
47618;DHT22;33336;36.728;-4.414;2022-07-05T19:02:48;30.60;74.60
47618;DHT22;33336;36.728;-4.414;2022-07-05T19:07:50;29.40;76.10
47618;DHT22;33336;36.728;-4.414;2022-07-05T19:13:12;29.50;76.00
47618;DHT22;33336;36.728;-4.414;2022-07-05T19:18:33;30.60;74.50
47618;DHT22;33336;36.728;-4.414;2022-07-05T19:23:36;30.50;74.00
47618;DHT22;33336;36.728;-4.414;2022-07-05T19:28:42;30.60;73.80
47618;DHT22;33336;36.728;-4.414;2022-07-05T19:33:44;29.00;75.90
47618;DHT22;33336;36.728;-4.414;2022-07-05T19:38:48;29.10;77.00
47618;DHT22;33336;36.728;-4.414;2022-07-05T19:43:52;29.20;76.60
47618;DHT22;33336;36.728;-4.414;2022-07-05T19:48:56;29.00;77.00
47618;DHT22;33336;36.728;-4.414;2022-07-05T19:53:59;29.20;76.80
47618;DHT22;33336;36.728;-4.414;2022-07-05T19:59:05;28.90;77.20
47618;DHT22;33336;36.728;-4.414;2022-07-05T20:04:08;28.70;77.60
47618;DHT22;33336;36.728;-4.414;2022-07-05T20:09:14;28.70;77.50
47618;DHT22;33336;36.728;-4.414;2022-07-05T20:14:18;29.00;77.10
47618;DHT22;33336;36.728;-4.414;2022-07-05T20:19:22;28.70;77.70
47618;DHT22;33336;36.728;-4.414;2022-07-05T20:24:25;28.70;77.90
47618;DHT22;33336;36.728;-4.414;2022-07-05T20:29:30;28.50;78.60
47618;DHT22;33336;36.728;-4.414;2022-07-05T20:34:33;28.70;78.00
47618;DHT22;33336;36.728;-4.414;2022-07-05T20:39:38;28.10;79.10
47618;DHT22;33336;36.728;-4.414;2022-07-05T20:44:42;27.70;80.10
47618;DHT22;33336;36.728;-4.414;2022-07-05T20:49:46;28.00;79.80
47618;DHT22;33336;36.728;-4.414;2022-07-05T20:54:49;28.50;79.10
47618;DHT22;33336;36.728;-4.414;2022-07-05T20:59:54;28.80;78.60
47618;DHT22;33336;36.728;-4.414;2022-07-05T21:04:57;28.90;78.40
47618;DHT22;33336;36.728;-4.414;2022-07-05T21:10:02;28.80;78.40
47618;DHT22;33336;36.728;-4.414;2022-07-05T21:15:07;28.70;79.20
47618;DHT22;33336;36.728;-4.414;2022-07-05T21:20:12;27.70;81.30
47618;DHT22;33336;36.728;-4.414;2022-07-05T21:25:16;27.40;82.10
47618;DHT22;33336;36.728;-4.414;2022-07-05T21:30:22;28.20;79.90
47618;DHT22;33336;36.728;-4.414;2022-07-05T21:35:25;28.40;79.40
47618;DHT22;33336;36.728;-4.414;2022-07-05T21:40:29;28.80;78.30
47618;DHT22;33336;36.728;-4.414;2022-07-05T21:45:33;28.20;79.50
47618;DHT22;33336;36.728;-4.414;2022-07-05T21:50:37;27.60;81.00
47618;DHT22;33336;36.728;-4.414;2022-07-05T21:55:40;27.30;81.60
47618;DHT22;33336;36.728;-4.414;2022-07-05T22:00:45;27.60;81.00
47618;DHT22;33336;36.728;-4.414;2022-07-05T22:06:05;28.00;80.30
47618;DHT22;33336;36.728;-4.414;2022-07-05T22:11:09;28.10;80.10
47618;DHT22;33336;36.728;-4.414;2022-07-05T22:16:31;28.20;80.00
47618;DHT22;33336;36.728;-4.414;2022-07-05T22:21:35;28.00;80.00
47618;DHT22;33336;36.728;-4.414;2022-07-05T22:26:37;27.50;81.20
47618;DHT22;33336;36.728;-4.414;2022-07-05T22:31:43;27.60;81.20
47618;DHT22;33336;36.728;-4.414;2022-07-05T22:36:45;27.20;82.50
47618;DHT22;33336;36.728;-4.414;2022-07-05T22:41:49;26.90;83.20
47618;DHT22;33336;36.728;-4.414;2022-07-05T22:46:53;26.60;84.60
47618;DHT22;33336;36.728;-4.414;2022-07-05T22:51:57;26.40;85.50
47618;DHT22;33336;36.728;-4.414;2022-07-05T22:57:00;26.10;86.40
47618;DHT22;33336;36.728;-4.414;2022-07-05T23:02:05;26.30;86.50
47618;DHT22;33336;36.728;-4.414;2022-07-05T23:07:08;26.70;85.60
47618;DHT22;33336;36.728;-4.414;2022-07-05T23:12:12;27.00;84.90
47618;DHT22;33336;36.728;-4.414;2022-07-05T23:17:16;27.00;84.50
47618;DHT22;33336;36.728;-4.414;2022-07-05T23:22:19;27.40;84.30
47618;DHT22;33336;36.728;-4.414;2022-07-05T23:27:22;26.90;84.80
47618;DHT22;33336;36.728;-4.414;2022-07-05T23:32:27;27.10;84.40
47618;DHT22;33336;36.728;-4.414;2022-07-05T23:37:30;26.80;85.10
47618;DHT22;33336;36.728;-4.414;2022-07-05T23:42:33;26.70;85.80
47618;DHT22;33336;36.728;-4.414;2022-07-05T23:47:38;27.20;84.60
47618;DHT22;33336;36.728;-4.414;2022-07-05T23:52:41;27.50;84.00
47618;DHT22;33336;36.728;-4.414;2022-07-05T23:57:44;27.30;84.30
